Terminal Aerodrome Forecast
Issued by NWS

Current Version | Previous Version | Text Only | Print | Product List | Glossary On
Versions: 1 2 3 4 5 6 7 8 9 10 11 12 13 14 15 16 17 18 19 20 21 22 23 24
000
FTUS41 KILN 080200 AAA
TAFLUK
TAF AMD
KLUK 080240Z 0803/0824 30008KT P6SM OVC015
      TEMPO 0803/0806 4SM -SHRA BR OVC009
     FM080600 VRB03KT 4SM BR VCSH OVC009
     FM081600 24005KT P6SM VCSH OVC015
     FM082000 24007KT P6SM VCSH BKN025=

USA.gov is the U.S. government's official web portal to all federal, state and local government web resources and services.